Brandon, SD

10:57 AM CDT on August 27, 2014 (GMT -0500)
Luverne | Change Station
CLOSE
Current Station
Airport
Location: Luverne,
Elevation: 1430 ft
Nearby Weather Stations

Elev 1430 ft 43.62 °N, 96.21 °W | Updated 22 minutes ago

Clear
Clear
64 °F
Feels Like 64 °F
N
6
Wind Variable Wind from ESE

Today
High -- | Low -- °F
--% Chance of Precip.
Yesterday
High -- | Low -- °F
Precip. -- in
6:44 AM 8:10 PM
Waxing Crescent, 4% visible
Pressure 30.23 in
Visibility 10.0 miles
Clouds Clear
Dew Point 57 °F
Humidity 77%
Rainfall 0.00 in
Snow Depth Not available.
UV 5 out of 12
Pollen 2.70 out of 12
Air Quality Not available.
Flu Activity Not available.
METAR KLYV 271535Z AUTO 12005KT 10SM CLR 18/14 A3023 RMK AO2

More Conditions Fewer Conditions

Pressure 30.23 in
Visibility 10.0 miles
Clouds Clear
Dew Point 57 °F
Humidity 77%
Rainfall 0.00 in
Snow Depth Not available.
UV 5 out of 12
Pollen 2.70 out of 12
Air Quality Not available.
Flu Activity Not available.
METAR KLYV 271535Z AUTO 12005KT 10SM CLR 18/14 A3023 RMK AO2

More Conditions Fewer Conditions

10-Day Weather Forecast

Almanac

Astronomy

Aug. 27, 2014 Rise Set
Actual Time 6:44 AM CDT 8:10 PM CDT
Civil Twilight 6:14 AM CDT 8:40 PM CDT
Nautical Twilight 5:38 AM CDT 9:16 PM CDT
Astronomical Twilight 5:00 AM CDT 9:54 PM CDT
Moon 8:46 AM CDT 8:57 PM CDT
Length of Visible Light 14h 25m
Length of Day
13h 25m
Tomorrow will be 2m 49s shorter.
Waxing Crescent, 4% of the Moon is Illuminated
Today
Waxing Crescent
Sep 2
First Quarter
Sep 8
Full
Sep 15
Last Quarter
Sep 24
New

Today's Extremes

State Highs State Lows

Community

WunderPhotos

Upload Photos

1,747,711 photos uploaded!

Nearby

Snow Depth

Station Depth Elevation
Blind Park 0 in 6890 ft

Earthquake Activity

City Distance Mag. Time & Date
No recent earthquake activity has been reported nearby.
Minimum magnitude displayed is 2.5.

Coastal Water Temperatures

Place Temperature
No Stations Reporting

Nearby Weather Stations